Time;durP1;ratioP1;P1;durP2;ratioP2;P2;SDS_P1;SDS_P2;PMS_P1;PMS_P2;Temp;Humidity;BMP_temperature;BMP_pressure;BME280_temperature;BME280_humidity;BME280_pressure;Samples;Min_cycle;Max_cycle;Signal;HPM_P1;HPM_P2
2021/03/21 00:01:35;;;;;;;9.47;7.33;;;;;;;6.78;100.00;101723.78;5069706;28;20425;-73
2021/03/21 00:04:01;;;;;;;9.50;6.60;;;;;;;6.73;100.00;101732.69;5071421;28;20517;-77
2021/03/21 00:06:27;;;;;;;8.50;6.10;;;;;;;6.79;100.00;101724.63;5079685;28;20453;-75
2021/03/21 00:08:52;;;;;;;7.93;6.03;;;;;;;6.80;100.00;101722.00;5075040;28;20172;-75
2021/03/21 00:11:18;;;;;;;8.43;6.63;;;;;;;6.69;100.00;101716.28;5067162;28;20583;-75
2021/03/21 00:13:43;;;;;;;8.90;6.37;;;;;;;6.66;100.00;101713.78;5073497;28;20175;-77
2021/03/21 00:16:09;;;;;;;9.07;7.03;;;;;;;6.66;100.00;101713.78;5071757;28;20829;-76
2021/03/21 00:18:37;;;;;;;9.07;6.67;;;;;;;6.63;100.00;101716.47;5071814;28;20194;-76
2021/03/21 00:21:05;;;;;;;12.47;7.33;;;;;;;6.66;100.00;101724.22;5071566;28;20222;-76
2021/03/21 00:23:32;;;;;;;8.73;6.00;;;;;;;6.66;100.00;101724.22;5070296;28;20500;-74
2021/03/21 00:25:58;;;;;;;11.03;6.17;;;;;;;6.68;100.00;101711.97;5072134;28;20434;-77
2021/03/21 00:28:28;;;;;;;8.73;6.57;;;;;;;6.71;100.00;101701.41;5071423;28;20978;-72
2021/03/21 00:30:54;;;;;;;7.07;5.80;;;;;;;6.81;100.00;101702.78;5070877;28;20402;-73
2021/03/21 00:33:23;;;;;;;7.60;5.40;;;;;;;6.77;100.00;101693.34;5073082;28;20445;-73
2021/03/21 00:35:51;;;;;;;12.90;6.47;;;;;;;6.71;100.00;101703.16;5072167;28;20955;-75
2021/03/21 00:38:26;;;;;;;7.77;5.60;;;;;;;6.71;100.00;101711.84;5074773;28;20501;-78
2021/03/21 00:40:52;;;;;;;7.07;5.70;;;;;;;6.68;100.00;101704.13;5070638;28;20406;-77
2021/03/21 00:43:18;;;;;;;8.37;5.97;;;;;;;6.68;100.00;101704.97;5071288;28;20453;-72
2021/03/21 00:45:44;;;;;;;7.90;6.50;;;;;;;6.71;100.00;101703.16;5071486;28;20391;-78
2021/03/21 00:48:15;;;;;;;10.20;6.23;;;;;;;6.66;100.00;101698.13;5070185;28;20489;-75
2021/03/21 00:50:41;;;;;;;9.60;6.67;;;;;;;6.64;100.00;101692.06;5077176;28;20172;-75
2021/03/21 00:53:06;;;;;;;9.00;7.17;;;;;;;6.61;100.00;101700.03;5086803;28;20449;-76
2021/03/21 00:55:32;;;;;;;8.53;6.77;;;;;;;6.58;100.00;101708.81;5071478;28;20646;-77
2021/03/21 00:57:57;;;;;;;10.93;8.47;;;;;;;6.58;100.00;101714.03;5071158;28;20708;-76
2021/03/21 01:00:29;;;;;;;11.23;7.13;;;;;;;6.62;100.00;101715.63;5070503;28;20594;-73
2021/03/21 01:02:55;;;;;;;8.47;6.40;;;;;;;6.54;100.00;101715.03;5084859;28;20195;-78
2021/03/21 01:05:30;;;;;;;9.70;6.77;;;;;;;6.59;100.00;101725.34;5072491;28;20426;-78
2021/03/21 01:07:56;;;;;;;6.93;5.40;;;;;;;6.54;100.00;101722.88;5052853;28;20872;-76
2021/03/21 01:10:27;;;;;;;9.43;6.73;;;;;;;6.55;100.00;101714.13;5069733;28;20971;-75
2021/03/21 01:12:54;;;;;;;7.47;5.83;;;;;;;6.57;100.00;101727.13;5066933;28;20518;-78
2021/03/21 01:15:22;;;;;;;9.70;6.53;;;;;;;6.50;100.00;101717.78;5077095;28;20406;-77
2021/03/21 01:17:48;;;;;;;10.10;6.40;;;;;;;6.40;100.00;101720.72;5090422;28;20463;-76
2021/03/21 01:20:15;;;;;;;8.83;5.60;;;;;;;6.48;100.00;101719.63;5086195;28;20476;-76
2021/03/21 01:22:41;;;;;;;9.30;5.90;;;;;;;6.42;100.00;101725.03;5070730;28;20450;-76
2021/03/21 01:25:08;;;;;;;8.03;5.67;;;;;;;6.48;100.00;101730.91;5070824;28;20465;-74
2021/03/21 01:27:34;;;;;;;8.53;5.50;;;;;;;6.47;100.00;101723.97;5070711;28;20168;-73
2021/03/21 01:29:59;;;;;;;8.70;5.90;;;;;;;6.44;100.00;101723.25;5070652;28;20836;-72
2021/03/21 01:32:25;;;;;;;8.67;5.93;;;;;;;6.38;100.00;101712.09;5069983;28;20192;-80
2021/03/21 01:34:50;;;;;;;6.43;5.10;;;;;;;6.39;100.00;101715.56;5070211;28;20172;-77
2021/03/21 01:37:16;;;;;;;9.37;6.40;;;;;;;6.40;100.00;101699.00;5070607;28;20161;-75
2021/03/21 01:39:41;;;;;;;7.10;5.23;;;;;;;6.42;100.00;101691.09;5070263;28;20168;-79
2021/03/21 01:42:11;;;;;;;10.80;5.67;;;;;;;6.39;100.00;101677.25;5070706;28;20171;-78
2021/03/21 01:44:37;;;;;;;12.13;5.60;;;;;;;6.36;100.00;101669.56;5070435;28;20200;-74
2021/03/21 01:47:33;;;;;;;7.73;5.17;;;;;;;6.39;100.00;101661.59;5070335;28;20434;-77
2021/03/21 01:50:04;;;;;;;7.83;5.60;;;;;;;6.38;100.00;101665.13;5064696;28;20510;-76
2021/03/21 01:52:41;;;;;;;7.10;5.10;;;;;;;6.40;100.00;101678.97;5070609;28;20877;-77
2021/03/21 01:55:13;;;;;;;6.80;4.93;;;;;;;6.33;100.00;101669.63;5070006;28;20906;-75
2021/03/21 01:57:39;;;;;;;8.10;5.03;;;;;;;6.37;100.00;101680.84;5070072;28;20407;-80
2021/03/21 02:00:08;;;;;;;6.07;4.20;;;;;;;6.27;100.00;101672.47;5069825;28;20410;-78
2021/03/21 02:02:34;;;;;;;5.80;4.70;;;;;;;6.27;100.00;101674.22;5082405;28;20868;-77
2021/03/21 02:04:59;;;;;;;6.93;4.10;;;;;;;6.25;100.00;101678.63;5088972;28;20974;-78
2021/03/21 02:07:43;;;;;;;6.40;4.33;;;;;;;6.22;100.00;101687.44;5085527;28;20322;-78
2021/03/21 02:10:31;;;;;;;8.30;4.43;;;;;;;6.21;100.00;101698.78;5087011;28;20259;-76
2021/03/21 02:13:20;;;;;;;6.97;4.47;;;;;;;6.18;100.00;101685.81;5070854;28;20402;-77
2021/03/21 02:15:51;;;;;;;7.50;4.63;;;;;;;6.21;100.00;101688.34;5069996;28;20820;-78
2021/03/21 02:18:34;;;;;;;8.13;4.40;;;;;;;6.23;100.00;101698.72;5065967;28;20411;-76
2021/03/21 02:21:20;;;;;;;5.60;3.80;;;;;;;6.17;100.00;101665.00;5069659;28;20411;-76
2021/03/21 02:24:01;;;;;;;7.80;4.23;;;;;;;6.18;100.00;101656.25;5070698;28;20967;-78
2021/03/21 02:26:59;;;;;;;10.80;4.70;;;;;;;6.18;100.00;101651.91;5072204;28;20469;-78
2021/03/21 02:29:35;;;;;;;7.40;4.10;;;;;;;6.14;100.00;101644.25;5089124;28;21040;-80
2021/03/21 02:32:06;;;;;;;6.60;4.40;;;;;;;6.21;100.00;101635.31;5061313;28;21011;-80
2021/03/21 02:34:47;;;;;;;7.37;4.50;;;;;;;6.18;100.00;101651.91;5060560;28;20939;-78
2021/03/21 02:37:28;;;;;;;6.80;4.40;;;;;;;6.18;100.00;101664.94;5055877;28;20410;-79
2021/03/21 02:40:28;;;;;;;9.93;4.40;;;;;;;6.11;100.00;101650.41;5074018;28;20791;-77
2021/03/21 02:43:06;;;;;;;7.60;4.37;;;;;;;6.03;100.00;101666.28;5073113;28;20442;-74
2021/03/21 02:45:36;;;;;;;6.83;4.20;;;;;;;6.09;100.00;101658.28;5073246;28;20387;-78
2021/03/21 02:48:13;;;;;;;6.80;4.63;;;;;;;6.07;100.00;101683.56;5082764;28;20426;-76
2021/03/21 02:50:47;;;;;;;6.80;4.77;;;;;;;6.00;100.00;101673.38;5093226;28;20413;-73
2021/03/21 02:53:20;;;;;;;8.77;4.60;;;;;;;5.97;100.00;101682.19;5092726;28;20826;-77
2021/03/21 02:55:49;;;;;;;7.37;4.80;;;;;;;5.98;100.00;101669.97;5090195;28;20785;-76
2021/03/21 02:58:33;;;;;;;7.97;4.67;;;;;;;5.93;100.00;101666.66;5075306;28;20403;-73
2021/03/21 03:01:22;;;;;;;6.83;4.10;;;;;;;5.91;100.00;101674.53;5072730;28;20419;-74
2021/03/21 03:03:50;;;;;;;7.93;4.93;;;;;;;5.87;100.00;101661.59;5072975;28;20443;-72
2021/03/21 03:06:24;;;;;;;6.60;4.57;;;;;;;5.82;100.00;101657.41;5076565;28;20404;-73
2021/03/21 03:08:53;;;;;;;8.57;5.83;;;;;;;5.78;100.00;101678.41;5084308;28;20411;-74
2021/03/21 03:11:26;;;;;;;6.00;4.27;;;;;;;5.76;100.00;101662.81;5073494;28;20387;-74
2021/03/21 03:13:59;;;;;;;7.20;4.40;;;;;;;5.74;100.00;101675.06;5072787;28;20395;-78
2021/03/21 03:16:46;;;;;;;7.00;4.23;;;;;;;5.65;100.00;101662.28;5072959;28;20403;-74
2021/03/21 03:19:27;;;;;;;7.30;4.60;;;;;;;5.67;100.00;101670.06;5031841;28;20457;-79
2021/03/21 03:22:16;;;;;;;6.73;4.43;;;;;;;5.53;100.00;101694.81;5072865;28;20911;-78
2021/03/21 03:25:18;;;;;;;6.70;4.50;;;;;;;5.49;100.00;101690.56;5071828;28;20411;-78
2021/03/21 03:28:38;;;;;;;9.40;5.20;;;;;;;5.52;100.00;101697.47;5070199;28;20413;-79
2021/03/21 03:31:17;;;;;;;7.83;5.30;;;;;;;5.46;100.00;101692.44;5008554;28;20438;-78
2021/03/21 03:33:42;;;;;;;7.93;4.90;;;;;;;5.46;100.00;101695.91;5065073;28;20502;-76
2021/03/21 03:36:11;;;;;;;6.43;4.40;;;;;;;5.47;100.00;101670.69;5072829;28;20401;-76
2021/03/21 03:38:39;;;;;;;7.20;5.07;;;;;;;5.45;100.00;101681.16;5072711;28;20684;-80
2021/03/21 03:41:19;;;;;;;9.43;5.30;;;;;;;5.42;100.00;101663.00;5071020;28;20415;-73
2021/03/21 03:44:07;;;;;;;7.53;5.50;;;;;;;5.45;100.00;101655.09;5072463;28;20442;-77
2021/03/21 03:47:01;;;;;;;9.23;5.33;;;;;;;5.37;100.00;101664.06;5072522;28;20474;-78
2021/03/21 03:49:42;;;;;;;6.93;5.40;;;;;;;5.38;100.00;101658.78;5070420;28;20406;-77
2021/03/21 03:52:29;;;;;;;8.23;5.07;;;;;;;5.37;100.00;101664.91;5087020;28;20937;-72
2021/03/21 03:55:03;;;;;;;8.20;5.20;;;;;;;5.33;100.00;101668.50;5071995;28;20741;-78
2021/03/21 03:57:36;;;;;;;7.47;5.50;;;;;;;5.38;100.00;101660.56;5091501;28;20793;-75
2021/03/21 04:00:26;;;;;;;7.77;5.93;;;;;;;5.35;100.00;101679.72;5082821;28;20799;-77
2021/03/21 04:03:07;;;;;;;11.23;5.23;;;;;;;5.35;100.00;101655.41;5078545;28;20541;-77
2021/03/21 04:05:35;;;;;;;7.00;4.93;;;;;;;5.31;100.00;101685.94;5076278;28;20375;-80
2021/03/21 04:08:05;;;;;;;8.93;5.67;;;;;;;5.32;100.00;101678.97;5072763;28;20829;-78
2021/03/21 04:10:35;;;;;;;7.40;5.77;;;;;;;5.41;100.00;101689.09;5072589;28;20473;-79
2021/03/21 04:13:27;;;;;;;7.60;5.67;;;;;;;5.50;100.00;101662.75;5072460;28;20407;-74
2021/03/21 04:15:55;;;;;;;8.53;5.57;;;;;;;5.46;100.00;101687.22;5072879;28;20482;-78
2021/03/21 04:18:36;;;;;;;9.20;5.80;;;;;;;5.44;100.00;101674.25;5071231;28;20415;-75
2021/03/21 04:21:20;;;;;;;10.00;6.80;;;;;;;5.43;100.00;101693.38;5072719;28;20418;-80
2021/03/21 04:24:04;;;;;;;9.17;5.53;;;;;;;5.40;100.00;101672.63;5072726;28;20443;-81
2021/03/21 04:26:44;;;;;;;9.63;5.70;;;;;;;5.50;100.00;101697.50;5073054;28;20422;-80
2021/03/21 04:29:19;;;;;;;7.90;5.27;;;;;;;5.57;100.00;101679.91;5072705;28;20415;-78
2021/03/21 04:31:47;;;;;;;8.10;5.63;;;;;;;5.61;100.00;101694.56;5071471;28;20517;-75
2021/03/21 04:34:14;;;;;;;8.20;6.10;;;;;;;5.62;100.00;101688.47;5072708;28;20399;-79
2021/03/21 04:36:45;;;;;;;10.53;6.23;;;;;;;5.66;100.00;101695.28;5072479;28;20442;-76
2021/03/21 04:39:13;;;;;;;7.73;5.30;;;;;;;5.65;100.00;101677.94;5071551;28;20423;-79
2021/03/21 04:41:47;;;;;;;8.43;5.33;;;;;;;5.74;100.00;101685.47;5072589;28;20399;-75
2021/03/21 04:44:14;;;;;;;7.40;5.83;;;;;;;5.80;100.00;101671.38;5071811;28;20537;-75
2021/03/21 04:46:50;;;;;;;7.37;5.63;;;;;;;5.84;100.00;101659.97;5072252;28;20468;-77
2021/03/21 04:49:19;;;;;;;26.43;24.33;;;;;;;5.83;100.00;101650.44;5052142;28;20441;-76
2021/03/21 04:51:45;;;;;;;8.03;6.67;;;;;;;5.89;100.00;101650.22;5052492;28;20403;-77
2021/03/21 04:54:20;;;;;;;8.10;5.90;;;;;;;5.93;100.00;101648.41;5067741;28;20407;-77
2021/03/21 04:57:14;;;;;;;9.17;5.60;;;;;;;5.97;100.00;101643.06;5071801;28;20402;-79
2021/03/21 04:59:41;;;;;;;9.40;6.13;;;;;;;6.04;100.00;101644.53;5065863;28;20452;-74
2021/03/21 05:02:15;;;;;;;13.30;8.03;;;;;;;6.08;100.00;101635.72;5071723;28;20777;-75
2021/03/21 05:04:47;;;;;;;8.50;5.70;;;;;;;6.13;100.00;101647.75;5054446;28;21034;-76
2021/03/21 05:07:31;;;;;;;9.70;5.60;;;;;;;6.23;100.00;101644.78;5082643;28;20540;-78
2021/03/21 05:10:16;;;;;;;8.80;5.63;;;;;;;6.25;100.00;101663.84;5090148;28;20425;-76
2021/03/21 05:12:45;;;;;;;11.23;5.50;;;;;;;6.31;100.00;101634.06;5084948;28;20421;-78
2021/03/21 05:15:31;;;;;;;9.50;5.90;;;;;;;6.34;100.00;101652.22;5074882;28;20466;-76
2021/03/21 05:18:14;;;;;;;8.10;5.10;;;;;;;6.37;100.00;101621.66;5071858;28;20391;-77
2021/03/21 05:21:08;;;;;;;8.47;6.17;;;;;;;6.44;100.00;101655.38;5071710;28;20425;-77
2021/03/21 05:23:38;;;;;;;9.07;5.80;;;;;;;6.57;100.00;101638.38;5061099;28;20458;-75
2021/03/21 05:26:14;;;;;;;7.97;6.10;;;;;;;6.60;100.00;101648.72;5071838;28;20426;-79
2021/03/21 05:29:07;;;;;;;8.63;6.07;;;;;;;6.62;100.00;101636.44;5071445;28;20421;-78
2021/03/21 05:31:33;;;;;;;8.20;6.20;;;;;;;6.62;100.00;101652.13;5070989;28;20853;-79
2021/03/21 05:34:01;;;;;;;10.20;6.00;;;;;;;6.67;100.00;101658.03;5071495;28;20391;-74
2021/03/21 05:37:01;;;;;;;13.27;6.53;;;;;;;6.75;100.00;101658.63;5071402;28;20406;-75
2021/03/21 05:40:12;;;;;;;9.77;7.00;;;;;;;6.76;100.00;101667.28;5071013;28;20407;-81
2021/03/21 05:43:08;;;;;;;11.17;7.57;;;;;;;6.90;100.00;101662.44;5070342;28;20448;-77
2021/03/21 05:46:00;;;;;;;8.57;6.23;;;;;;;7.04;100.00;101659.31;5051555;28;20436;-80
2021/03/21 05:48:31;;;;;;;8.50;5.90;;;;;;;7.03;100.00;101650.63;5051784;28;20407;-78
2021/03/21 05:51:33;;;;;;;9.60;7.00;;;;;;;7.06;100.00;101655.72;5058758;28;20415;-80
2021/03/21 05:54:02;;;;;;;12.90;6.53;;;;;;;7.03;100.00;101662.81;5051049;28;20463;-73
2021/03/21 05:57:12;;;;;;;8.20;6.67;;;;;;;7.17;100.00;101665.75;5051246;28;20388;-80
2021/03/21 05:59:59;;;;;;;10.30;6.90;;;;;;;7.18;100.00;101685.78;5054377;28;20411;-80
2021/03/21 06:03:10;;;;;;;11.13;7.23;;;;;;;7.24;100.00;101670.69;5065786;28;20438;-81
2021/03/21 06:05:51;;;;;;;12.23;7.23;;;;;;;7.36;100.00;101679.84;5053623;28;20490;-79
2021/03/21 06:08:44;;;;;;;12.93;7.70;;;;;;;7.44;100.00;101669.94;5074231;28;20447;-81
2021/03/21 06:11:35;;;;;;;8.93;7.00;;;;;;;7.39;100.00;101673.63;5070092;28;20476;-74
2021/03/21 06:14:22;;;;;;;9.60;6.87;;;;;;;7.29;100.00;101664.47;5073774;28;20403;-74
2021/03/21 06:17:15;;;;;;;10.67;6.60;;;;;;;7.23;100.00;101658.53;5074252;28;20506;-80
2021/03/21 06:20:00;;;;;;;10.73;7.63;;;;;;;7.20;100.00;101655.22;5073671;28;20479;-74
2021/03/21 06:22:50;;;;;;;10.10;7.63;;;;;;;7.15;100.00;101662.38;5073333;28;20434;-71
2021/03/21 06:25:24;;;;;;;10.30;7.40;;;;;;;7.07;100.00;101667.88;5072622;28;20403;-75
2021/03/21 06:28:08;;;;;;;10.07;7.20;;;;;;;7.10;100.00;101675.59;5061902;28;20406;-75
2021/03/21 06:30:58;;;;;;;10.93;8.57;;;;;;;7.21;100.00;101667.38;5074217;28;20445;-73
2021/03/21 06:33:33;;;;;;;10.63;7.93;;;;;;;7.29;100.00;101665.31;5073883;28;20480;-76
2021/03/21 06:36:09;;;;;;;10.87;7.40;;;;;;;7.28;100.00;101688.91;5073806;28;20402;-79
2021/03/21 06:38:59;;;;;;;12.63;8.30;;;;;;;7.27;100.00;101677.59;5078291;28;20493;-81
2021/03/21 06:41:42;;;;;;;13.43;7.73;;;;;;;7.29;100.00;101686.22;5056736;28;20548;-79
2021/03/21 06:44:38;;;;;;;10.33;7.60;;;;;;;7.24;100.00;101683.75;5072753;28;20438;-75
2021/03/21 06:47:37;;;;;;;10.13;6.93;;;;;;;7.11;100.00;101689.53;5093424;28;20489;-79
2021/03/21 06:50:23;;;;;;;9.50;7.07;;;;;;;7.01;100.00;101683.78;5083566;28;20410;-81
2021/03/21 06:52:55;;;;;;;10.07;7.20;;;;;;;6.98;100.00;101686.50;5074326;28;20415;-83
2021/03/21 06:55:39;;;;;;;10.37;7.50;;;;;;;6.93;100.00;101680.59;5073494;28;20415;-84
2021/03/21 06:58:32;;;;;;;11.07;8.70;;;;;;;7.08;100.00;101682.63;5074645;28;20391;-83
2021/03/21 07:01:31;;;;;;;11.00;7.97;;;;;;;7.13;100.00;101680.72;5073496;28;20437;-83
2021/03/21 07:04:02;;;;;;;10.07;8.00;;;;;;;7.08;100.00;101674.81;5074187;28;20446;-82
2021/03/21 07:06:58;;;;;;;11.80;8.03;;;;;;;7.07;100.00;101667.03;5072834;28;20461;-82
2021/03/21 07:09:45;;;;;;;9.90;7.67;;;;;;;7.08;100.00;101660.88;5066520;28;20446;-83
2021/03/21 07:12:58;;;;;;;14.43;7.27;;;;;;;6.92;100.00;101653.63;5063910;28;20993;-83
2021/03/21 07:15:42;;;;;;;9.90;7.43;;;;;;;6.90;100.00;101646.75;5027205;28;20539;-81
2021/03/21 07:18:45;;;;;;;16.13;7.90;;;;;;;6.91;100.00;101659.75;5072651;28;20455;-80
2021/03/21 07:21:41;;;;;;;9.97;6.93;;;;;;;6.95;100.00;101660.47;5073651;28;20913;-77
2021/03/21 07:24:56;;;;;;;17.57;8.33;;;;;;;7.05;100.00;101643.56;5082534;28;20998;-77
2021/03/21 07:27:21;;;;;;;11.80;7.90;;;;;;;7.01;100.00;101643.72;5073531;28;20454;-75
2021/03/21 07:29:54;;;;;;;10.17;7.43;;;;;;;7.08;100.00;101637.38;5072062;28;20853;-77
2021/03/21 07:32:57;;;;;;;11.83;9.50;;;;;;;7.14;100.00;101634.53;5073146;28;20172;-77
2021/03/21 07:35:48;;;;;;;12.60;8.10;;;;;;;7.11;100.00;101632.06;5073506;28;20394;-78
2021/03/21 07:38:25;;;;;;;16.17;8.77;;;;;;;7.16;100.00;101638.78;5066259;28;20831;-73
2021/03/21 07:41:09;;;;;;;12.37;8.40;;;;;;;7.15;100.00;101642.31;5088778;28;20406;-77
2021/03/21 07:44:01;;;;;;;10.37;7.30;;;;;;;7.07;100.00;101648.75;5091400;28;20449;-77
2021/03/21 07:46:40;;;;;;;11.73;8.50;;;;;;;7.01;100.00;101644.59;5085343;28;20407;-77
2021/03/21 07:49:11;;;;;;;10.77;7.67;;;;;;;7.17;100.00;101642.25;5072313;28;20900;-75
2021/03/21 07:51:56;;;;;;;14.97;8.70;;;;;;;7.29;100.00;101631.31;5072763;28;20402;-75
2021/03/21 07:54:42;;;;;;;11.13;8.37;;;;;;;7.41;100.00;101641.31;5072675;28;20402;-76
2021/03/21 07:57:39;;;;;;;14.40;8.10;;;;;;;7.55;100.00;101637.28;5052801;28;20403;-74
2021/03/21 08:00:08;;;;;;;12.00;7.60;;;;;;;7.63;100.00;101635.22;5052858;28;20400;-75
2021/03/21 08:02:33;;;;;;;11.73;8.27;;;;;;;7.70;100.00;101636.69;5052480;28;20446;-74
2021/03/21 08:05:22;;;;;;;11.23;8.27;;;;;;;7.62;100.00;101631.75;5052805;28;20408;-76
2021/03/21 08:07:52;;;;;;;12.17;8.10;;;;;;;7.63;100.00;101635.22;5062179;28;20266;-74
2021/03/21 08:10:26;;;;;;;12.00;7.20;;;;;;;7.62;100.00;101625.66;5072874;28;20398;-75
2021/03/21 08:13:33;;;;;;;13.60;8.70;;;;;;;7.54;100.00;101625.13;5072174;28;20400;-75
2021/03/21 08:16:00;;;;;;;11.33;8.17;;;;;;;7.49;100.00;101620.97;5058089;28;20430;-76
2021/03/21 08:18:32;;;;;;;12.40;8.83;;;;;;;7.29;100.00;101618.25;5072508;28;20948;-77
2021/03/21 08:21:15;;;;;;;14.43;8.83;;;;;;;7.23;100.00;101610.66;5072182;28;20395;-75
2021/03/21 08:23:43;;;;;;;12.10;8.03;;;;;;;7.28;100.00;101607.88;5052192;28;20453;-77
2021/03/21 08:26:12;;;;;;;13.03;9.23;;;;;;;7.26;100.00;101601.88;5065873;28;20466;-76
2021/03/21 08:29:02;;;;;;;11.60;8.53;;;;;;;7.15;100.00;101608.34;5071692;28;20488;-77
2021/03/21 08:31:34;;;;;;;12.63;8.20;;;;;;;7.24;100.00;101618.44;5072114;28;20419;-75
2021/03/21 08:34:33;;;;;;;14.73;8.07;;;;;;;7.33;100.00;101638.16;5071989;28;20449;-74
2021/03/21 08:37:01;;;;;;;10.27;7.70;;;;;;;7.29;100.00;101643.53;5071762;28;20456;-75
2021/03/21 08:39:34;;;;;;;11.97;7.90;;;;;;;7.34;100.00;101628.56;5071968;28;20391;-78
2021/03/21 08:42:01;;;;;;;13.67;7.93;;;;;;;7.41;100.00;101628.25;5054306;28;20431;-76
2021/03/21 08:44:41;;;;;;;12.90;8.80;;;;;;;7.37;100.00;101641.50;5076800;28;20453;-77
2021/03/21 08:47:22;;;;;;;12.57;9.57;;;;;;;7.35;100.00;101638.09;5071331;28;20579;-77
2021/03/21 08:49:51;;;;;;;11.90;8.67;;;;;;;7.36;100.00;101651.09;5071261;28;20425;-77
2021/03/21 08:52:41;;;;;;;17.50;9.50;;;;;;;7.44;100.00;101656.88;5071907;28;20421;-77
2021/03/21 08:55:22;;;;;;;18.63;11.27;;;;;;;7.45;100.00;101649.88;5072454;28;20430;-78
2021/03/21 08:57:48;;;;;;;14.40;9.23;;;;;;;7.50;100.00;101648.78;5072243;28;20387;-78
2021/03/21 09:00:23;;;;;;;13.53;9.10;;;;;;;7.48;100.00;101637.56;5071643;28;20398;-75
2021/03/21 09:02:49;;;;;;;11.80;8.77;;;;;;;7.52;100.00;101635.66;5072158;28;20796;-74
2021/03/21 09:05:17;;;;;;;12.63;9.60;;;;;;;7.64;100.00;101623.88;5072084;28;20402;-76
2021/03/21 09:07:49;;;;;;;12.17;9.30;;;;;;;7.58;100.00;101616.25;5071468;28;20443;-78
2021/03/21 09:10:32;;;;;;;13.07;8.53;;;;;;;7.51;100.00;101618.28;5072296;28;20978;-76
2021/03/21 09:13:03;;;;;;;10.10;8.40;;;;;;;7.49;100.00;101617.50;5071748;28;20464;-77
2021/03/21 09:15:33;;;;;;;14.13;9.10;;;;;;;7.52;100.00;101609.50;5071813;28;20398;-75
2021/03/21 09:18:11;;;;;;;14.67;9.27;;;;;;;7.53;100.00;101616.44;5071760;28;20394;-75
2021/03/21 09:20:40;;;;;;;15.57;9.43;;;;;;;7.58;100.00;101619.72;5072095;28;20402;-76
2021/03/21 09:23:43;;;;;;;13.20;10.70;;;;;;;7.69;100.00;101616.66;5071738;28;20450;-76
2021/03/21 09:26:25;;;;;;;12.87;9.20;;;;;;;7.74;100.00;101612.13;5065073;28;20832;-75
2021/03/21 09:28:59;;;;;;;13.07;9.30;;;;;;;7.64;100.00;101609.03;5071495;28;20464;-78
2021/03/21 09:31:25;;;;;;;26.97;10.07;;;;;;;7.64;100.00;101616.03;5073616;28;20438;-75
2021/03/21 09:34:06;;;;;;;11.10;9.07;;;;;;;7.56;100.00;101623.28;5070940;28;20409;-74
2021/03/21 09:36:49;;;;;;;12.93;8.53;;;;;;;7.49;100.00;101612.25;5071090;28;20391;-74
2021/03/21 09:39:20;;;;;;;10.00;7.80;;;;;;;7.46;100.00;101615.81;5071104;28;20448;-75
2021/03/21 09:41:50;;;;;;;11.20;8.90;;;;;;;7.51;100.00;101620.88;5074769;28;20403;-71
2021/03/21 09:44:37;;;;;;;11.57;8.90;;;;;;;7.48;100.00;101614.03;5074281;28;20959;-72
2021/03/21 09:47:32;;;;;;;10.77;7.80;;;;;;;7.47;100.00;101611.44;5074246;28;20418;-70
2021/03/21 09:50:20;;;;;;;13.20;8.80;;;;;;;7.64;100.00;101602.94;5074881;28;20410;-74
2021/03/21 09:52:57;;;;;;;11.57;8.47;;;;;;;7.82;100.00;101610.03;5073923;28;20487;-74
2021/03/21 09:55:30;;;;;;;11.93;9.37;;;;;;;8.08;100.00;101608.94;5074746;28;20414;-73
2021/03/21 09:58:14;;;;;;;17.50;12.53;;;;;;;8.23;100.00;101608.28;5073796;28;20523;-77
2021/03/21 10:00:42;;;;;;;12.20;8.67;;;;;;;8.26;100.00;101604.69;5073675;28;20410;-74
2021/03/21 10:03:27;;;;;;;11.90;8.60;;;;;;;8.31;100.00;101600.09;5074853;28;21040;-79
2021/03/21 10:06:01;;;;;;;9.87;7.67;;;;;;;8.26;100.00;101597.69;5078288;28;20434;-79
2021/03/21 10:08:49;;;;;;;19.30;12.63;;;;;;;8.19;100.00;101595.41;5074121;28;20514;-74
2021/03/21 10:11:39;;;;;;;13.13;9.67;;;;;;;8.48;100.00;101600.25;5073322;28;20423;-76
2021/03/21 10:14:26;;;;;;;13.80;8.53;;;;;;;8.46;100.00;101603.84;5073280;28;20407;-76
2021/03/21 10:16:56;;;;;;;13.33;9.23;;;;;;;8.68;100.00;101607.22;5054825;28;20815;-76
2021/03/21 10:19:47;;;;;;;13.03;8.93;;;;;;;8.68;100.00;101606.34;5073451;28;20414;-73
2021/03/21 10:22:18;;;;;;;13.00;9.63;;;;;;;8.93;100.00;101608.75;5073534;28;20411;-72
2021/03/21 10:25:00;;;;;;;14.30;8.20;;;;;;;9.14;100.00;101598.13;5075382;28;20415;-78
2021/03/21 10:27:29;;;;;;;12.57;8.77;;;;;;;9.13;100.00;101599.00;5073445;28;20430;-76
2021/03/21 10:30:03;;;;;;;13.93;9.23;;;;;;;9.23;100.00;101599.44;5073861;28;20569;-76
2021/03/21 10:32:31;;;;;;;12.47;9.23;;;;;;;8.85;100.00;101599.47;5073297;28;20418;-77
2021/03/21 10:34:58;;;;;;;10.70;8.93;;;;;;;8.76;100.00;101599.00;5073329;28;20414;-78
2021/03/21 10:37:42;;;;;;;14.47;8.57;;;;;;;8.49;100.00;101594.09;5073566;28;20879;-77
2021/03/21 10:40:12;;;;;;;13.77;10.03;;;;;;;8.47;100.00;101588.09;5073521;28;20425;-74
2021/03/21 10:42:44;;;;;;;13.20;9.57;;;;;;;8.51;100.00;101587.00;5073309;28;20453;-75
2021/03/21 10:45:15;;;;;;;12.93;9.73;;;;;;;8.65;100.00;101577.69;5073080;28;20411;-72
2021/03/21 10:47:42;;;;;;;14.50;10.20;;;;;;;8.86;100.00;101567.09;5063278;28;20475;-74
2021/03/21 10:50:46;;;;;;;14.93;10.77;;;;;;;9.06;100.00;101562.66;5073485;28;20410;-70
2021/03/21 10:53:36;;;;;;;14.43;10.63;;;;;;;8.85;100.00;101570.63;5072220;28;20445;-74
2021/03/21 10:56:11;;;;;;;11.03;8.30;;;;;;;8.63;100.00;101558.59;5072685;28;20426;-71
2021/03/21 10:58:36;;;;;;;15.27;9.50;;;;;;;8.48;100.00;101547.88;5082669;28;20418;-76
2021/03/21 11:01:20;;;;;;;12.67;9.87;;;;;;;8.53;100.00;101542.41;5072559;28;20409;-73
2021/03/21 11:03:48;;;;;;;12.80;8.43;;;;;;;8.50;100.00;101539.94;5072408;28;20230;-76
2021/03/21 11:06:20;;;;;;;11.07;7.80;;;;;;;8.58;100.00;101527.34;5077342;28;20932;-78
2021/03/21 11:08:47;;;;;;;11.27;8.60;;;;;;;8.36;100.00;101534.47;5073235;28;20498;-78
2021/03/21 11:11:20;;;;;;;10.37;8.43;;;;;;;8.29;100.00;101537.34;5055527;28;20418;-75
2021/03/21 11:13:47;;;;;;;11.43;8.10;;;;;;;8.36;100.00;101530.09;5073321;28;20436;-76
2021/03/21 11:16:18;;;;;;;12.03;8.03;;;;;;;8.17;100.00;101530.03;5072888;28;20943;-76
2021/03/21 11:19:07;;;;;;;10.17;7.40;;;;;;;8.08;100.00;101538.28;5073415;28;20399;-75
2021/03/21 11:21:36;;;;;;;15.23;8.70;;;;;;;7.99;100.00;101523.81;5073409;28;20438;-74
2021/03/21 11:24:05;;;;;;;13.20;8.10;;;;;;;7.97;100.00;101509.97;5072909;28;20451;-77
2021/03/21 11:26:37;;;;;;;10.50;7.90;;;;;;;8.02;100.00;101510.63;5072689;28;20419;-75
2021/03/21 11:29:06;;;;;;;12.33;8.07;;;;;;;7.89;100.00;101508.59;5072981;28;20402;-71
2021/03/21 11:31:39;;;;;;;13.03;8.67;;;;;;;7.86;100.00;101499.13;5072613;28;20426;-79
2021/03/21 11:34:19;;;;;;;9.40;6.90;;;;;;;7.75;100.00;101499.56;5073059;28;20407;-75
2021/03/21 11:36:47;;;;;;;10.20;7.40;;;;;;;7.80;100.00;101504.63;5070669;28;20411;-76
2021/03/21 11:39:47;;;;;;;11.37;7.90;;;;;;;7.85;100.00;101500.00;5071470;28;20871;-77
2021/03/21 11:42:27;;;;;;;16.33;8.00;;;;;;;7.73;100.00;101493.56;5070227;28;20407;-76
2021/03/21 11:45:14;;;;;;;13.53;9.13;;;;;;;7.81;100.00;101501.09;5070681;28;20415;-77
2021/03/21 11:47:44;;;;;;;12.03;8.03;;;;;;;7.87;100.00;101497.38;5072919;28;21003;-76
2021/03/21 11:50:28;;;;;;;12.60;9.33;;;;;;;7.80;100.00;101507.22;5072220;28;20445;-72
2021/03/21 11:52:55;;;;;;;14.13;8.73;;;;;;;7.78;100.00;101495.97;5071678;28;20411;-79
2021/03/21 11:55:28;;;;;;;13.00;9.80;;;;;;;7.73;100.00;101500.56;5071541;28;20494;-77
2021/03/21 11:58:15;;;;;;;13.50;10.13;;;;;;;7.56;100.00;101497.78;5058671;28;20415;-72
2021/03/21 12:01:04;;;;;;;19.60;10.43;;;;;;;7.56;100.00;101500.41;5068949;28;20410;-73
2021/03/21 12:03:46;;;;;;;11.70;8.93;;;;;;;7.63;100.00;101491.38;5061285;28;20806;-75
2021/03/21 12:06:32;;;;;;;14.70;9.33;;;;;;;7.53;100.00;101497.94;5068023;28;20852;-72
2021/03/21 12:08:59;;;;;;;13.17;9.57;;;;;;;7.52;100.00;101491.84;5061164;28;20484;-71